Time;durP1;ratioP1;P1;durP2;ratioP2;P2;SDS_P1;SDS_P2;PMS_P1;PMS_P2;Temp;Humidity;BMP_temperature;BMP_pressure;BME280_temperature;BME280_humidity;BME280_pressure;Samples;Min_cycle;Max_cycle;Signal;HPM_P1;HPM_P2
2023/03/13 00:01:50;;;;;;;29.60;5.57;;;6.30;99.90;;;;;;4360609;28;10000215;-74
2023/03/13 00:04:16;;;;;;;26.48;5.90;;;6.20;99.90;;;;;;5053544;28;20059;-75
2023/03/13 00:06:43;;;;;;;29.00;5.47;;;6.20;99.90;;;;;;5045949;28;20028;-74
2023/03/13 00:09:14;;;;;;;27.88;6.28;;;6.30;99.90;;;;;;5055748;28;20097;-74
2023/03/13 00:11:44;;;;;;;22.27;5.00;;;6.20;99.90;;;;;;5053915;28;20040;-74
2023/03/13 00:14:15;;;;;;;24.75;5.28;;;6.30;99.90;;;;;;5047114;28;20489;-75
2023/03/13 00:16:46;;;;;;;30.67;5.80;;;6.30;99.90;;;;;;5037435;28;20037;-74
2023/03/13 00:19:20;;;;;;;27.25;5.70;;;6.30;99.90;;;;;;5065390;28;20032;-74
2023/03/13 00:21:49;;;;;;;27.25;5.13;;;6.30;99.90;;;;;;5060435;28;20044;-74
2023/03/13 00:24:23;;;;;;;26.35;5.72;;;6.30;99.90;;;;;;5058970;28;20017;-74
2023/03/13 00:26:49;;;;;;;27.65;5.47;;;6.30;99.90;;;;;;5046445;28;20040;-74
2023/03/13 00:29:16;;;;;;;29.45;5.18;;;6.40;99.90;;;;;;5048907;28;20025;-74
2023/03/13 00:31:47;;;;;;;28.23;5.05;;;6.50;99.90;;;;;;5045026;28;20021;-74
2023/03/13 00:34:14;;;;;;;27.25;5.43;;;6.50;99.90;;;;;;5039429;28;20029;-74
2023/03/13 00:36:44;;;;;;;29.25;5.05;;;6.50;99.90;;;;;;5034133;28;20082;-74
2023/03/13 00:39:13;;;;;;;35.13;5.65;;;6.60;99.90;;;;;;5036004;28;20340;-74
2023/03/13 00:41:43;;;;;;;33.10;5.32;;;6.60;99.90;;;;;;5042237;28;20386;-74
2023/03/13 00:44:15;;;;;;;20.38;4.82;;;6.60;99.90;;;;;;5046743;28;20074;-74
2023/03/13 00:46:48;;;;;;;26.10;5.22;;;6.70;99.90;;;;;;5060160;28;20050;-74
2023/03/13 00:49:20;;;;;;;24.75;5.15;;;6.70;99.90;;;;;;5050062;28;20111;-74
2023/03/13 00:51:49;;;;;;;28.08;5.47;;;6.80;99.90;;;;;;5047125;28;20068;-74
2023/03/13 00:54:26;;;;;;;24.83;5.07;;;6.80;99.90;;;;;;5048467;28;20107;-74
2023/03/13 00:56:53;;;;;;;30.85;5.03;;;6.80;99.90;;;;;;5064378;28;20119;-74
2023/03/13 00:59:25;;;;;;;25.48;5.35;;;6.90;99.90;;;;;;5052012;28;20033;-74
2023/03/13 01:01:58;;;;;;;25.90;4.93;;;6.90;99.90;;;;;;5055072;28;20041;-74
2023/03/13 01:04:31;;;;;;;22.52;5.28;;;6.90;99.90;;;;;;5048805;28;20036;-74
2023/03/13 01:06:57;;;;;;;14.68;3.22;;;6.90;99.90;;;;;;5052642;28;20033;-74
2023/03/13 01:09:32;;;;;;;26.35;5.13;;;6.90;99.90;;;;;;5054130;28;20119;-74
2023/03/13 01:12:03;;;;;;;25.10;5.00;;;6.90;99.90;;;;;;5051887;28;20583;-75
2023/03/13 01:14:32;;;;;;;25.95;5.28;;;6.90;99.90;;;;;;5061104;28;20182;-74
2023/03/13 01:16:58;;;;;;;25.30;4.78;;;6.90;99.90;;;;;;5060613;28;20365;-74
2023/03/13 01:19:33;;;;;;;23.55;4.38;;;6.90;99.90;;;;;;5075284;28;20046;-75
2023/03/13 01:22:01;;;;;;;30.17;5.15;;;7.00;99.90;;;;;;5070141;28;20040;-74
2023/03/13 01:24:31;;;;;;;35.85;5.35;;;7.00;99.90;;;;;;5050741;28;20037;-75
2023/03/13 01:26:58;;;;;;;28.45;4.75;;;7.00;99.90;;;;;;5045148;28;20036;-75
2023/03/13 01:29:34;;;;;;;32.20;4.97;;;7.00;99.90;;;;;;5053793;28;20158;-74
2023/03/13 01:32:10;;;;;;;22.15;4.22;;;7.10;99.90;;;;;;5055279;28;20029;-74
2023/03/13 01:34:39;;;;;;;27.73;5.30;;;7.10;99.90;;;;;;5055029;28;20032;-74
2023/03/13 01:37:07;;;;;;;29.65;4.80;;;7.20;99.90;;;;;;5051834;28;20040;-74
2023/03/13 01:39:38;;;;;;;27.15;5.10;;;7.30;99.90;;;;;;5069245;28;20043;-74
2023/03/13 01:42:13;;;;;;;29.30;4.82;;;7.30;99.90;;;;;;5046483;28;20061;-74
2023/03/13 01:44:58;;;;;;;25.58;4.63;;;7.50;99.90;;;;;;5040090;28;20029;-74
2023/03/13 01:47:27;;;;;;;30.90;4.90;;;7.40;99.90;;;;;;5065799;28;20044;-74
2023/03/13 01:49:56;;;;;;;23.67;4.50;;;7.40;99.90;;;;;;5047149;28;20025;-74
2023/03/13 01:52:30;;;;;;;26.48;4.90;;;7.50;99.90;;;;;;5054682;28;20044;-74
2023/03/13 01:55:15;;;;;;;23.67;5.25;;;7.50;99.90;;;;;;5050559;28;20080;-74
2023/03/13 01:57:55;;;;;;;27.60;4.63;;;7.50;99.90;;;;;;5038589;28;20025;-74
2023/03/13 02:00:28;;;;;;;23.52;4.35;;;7.60;99.90;;;;;;5059767;28;20033;-74
2023/03/13 02:02:59;;;;;;;25.75;4.85;;;7.50;99.90;;;;;;5055045;28;20116;-74
2023/03/13 02:05:33;;;;;;;24.52;4.60;;;7.50;99.90;;;;;;5053829;28;20096;-74
2023/03/13 02:08:05;;;;;;;27.63;4.43;;;7.50;99.90;;;;;;5052334;28;20033;-74
2023/03/13 02:10:43;;;;;;;24.75;4.20;;;7.50;99.90;;;;;;5053216;28;20013;-74
2023/03/13 02:13:19;;;;;;;26.15;4.75;;;7.50;99.90;;;;;;5068438;28;20157;-74
2023/03/13 02:15:57;;;;;;;26.35;4.05;;;7.50;99.90;;;;;;5052232;28;20030;-74
2023/03/13 02:18:31;;;;;;;22.95;4.47;;;7.50;99.90;;;;;;5042529;28;20136;-74
2023/03/13 02:21:10;;;;;;;27.35;4.90;;;7.50;99.90;;;;;;5048019;28;20033;-75
2023/03/13 02:23:54;;;;;;;29.98;4.57;;;7.50;99.90;;;;;;5030770;28;20587;-74
2023/03/13 02:26:31;;;;;;;28.77;5.18;;;7.40;99.90;;;;;;5029752;28;20033;-74
2023/03/13 02:29:04;;;;;;;21.63;4.82;;;7.50;99.90;;;;;;5030574;28;20561;-74
2023/03/13 02:31:35;;;;;;;28.77;4.57;;;7.40;99.90;;;;;;5021622;28;20038;-75
2023/03/13 02:34:04;;;;;;;21.10;4.00;;;7.50;99.90;;;;;;5022901;28;20088;-74
2023/03/13 02:36:39;;;;;;;31.50;5.25;;;7.50;99.90;;;;;;5030570;28;20035;-74
2023/03/13 02:39:15;;;;;;;26.17;4.47;;;7.50;99.90;;;;;;5030667;28;20029;-74
2023/03/13 02:41:48;;;;;;;24.90;4.38;;;7.50;99.90;;;;;;5017655;28;20087;-75
2023/03/13 02:44:17;;;;;;;27.00;4.55;;;7.50;99.90;;;;;;5014726;28;20026;-74
2023/03/13 02:46:53;;;;;;;26.23;4.50;;;7.50;99.90;;;;;;5016926;28;20085;-74
2023/03/13 02:49:28;;;;;;;25.85;4.75;;;7.60;99.90;;;;;;5015433;28;20044;-74
2023/03/13 02:52:04;;;;;;;26.35;4.18;;;7.50;99.90;;;;;;5015735;28;20428;-74
2023/03/13 02:54:40;;;;;;;27.58;4.35;;;7.60;99.90;;;;;;5020705;28;20053;-74
2023/03/13 02:57:12;;;;;;;22.80;4.30;;;7.60;99.90;;;;;;5021255;28;20046;-74
2023/03/13 02:59:42;;;;;;;21.67;3.70;;;7.60;99.90;;;;;;5010639;28;20029;-74
2023/03/13 03:02:08;;;;;;;34.80;4.93;;;7.60;99.90;;;;;;5028502;28;20156;-74
2023/03/13 03:04:34;;;;;;;29.45;3.97;;;7.50;99.90;;;;;;5024797;28;20125;-74
2023/03/13 03:06:59;;;;;;;24.30;4.35;;;7.50;99.90;;;;;;5021773;28;20041;-74
2023/03/13 03:09:26;;;;;;;24.90;4.60;;;7.50;99.90;;;;;;5016106;28;20104;-74
2023/03/13 03:11:53;;;;;;;27.77;4.55;;;7.60;99.90;;;;;;5030048;28;20037;-75
2023/03/13 03:14:20;;;;;;;21.90;4.07;;;7.60;99.90;;;;;;5023246;28;20282;-74
2023/03/13 03:16:46;;;;;;;24.55;4.68;;;7.60;99.90;;;;;;5015927;28;20030;-74
2023/03/13 03:19:14;;;;;;;27.58;4.07;;;7.60;99.90;;;;;;5009660;28;20029;-74
2023/03/13 03:21:41;;;;;;;20.42;4.03;;;7.60;99.90;;;;;;5028864;28;20053;-74
2023/03/13 03:24:10;;;;;;;19.58;3.92;;;7.70;99.90;;;;;;5036970;28;20128;-74
2023/03/13 03:26:40;;;;;;;27.17;4.53;;;7.70;99.90;;;;;;5041690;28;20108;-75
2023/03/13 03:29:09;;;;;;;25.33;4.47;;;7.70;99.90;;;;;;5046772;28;20409;-74
2023/03/13 03:31:36;;;;;;;26.45;4.35;;;7.60;99.90;;;;;;5037873;28;20500;-74
2023/03/13 03:34:08;;;;;;;23.70;5.38;;;7.70;99.90;;;;;;5041124;28;20045;-74
2023/03/13 03:36:41;;;;;;;22.83;3.90;;;7.70;99.90;;;;;;5033289;28;20368;-74
2023/03/13 03:39:12;;;;;;;22.23;4.07;;;7.70;99.90;;;;;;5030122;28;20313;-74
2023/03/13 03:41:39;;;;;;;23.67;4.18;;;7.70;99.90;;;;;;5043215;28;20378;-74
2023/03/13 03:44:07;;;;;;;23.27;4.05;;;7.70;99.90;;;;;;5045437;28;20037;-74
2023/03/13 03:46:36;;;;;;;24.08;4.22;;;7.80;99.90;;;;;;5048631;28;20449;-74
2023/03/13 03:49:04;;;;;;;25.90;5.13;;;7.90;99.90;;;;;;5049511;28;20025;-75
2023/03/13 03:51:32;;;;;;;26.35;4.47;;;7.90;99.90;;;;;;5037670;28;20061;-75
2023/03/13 03:53:59;;;;;;;25.98;4.60;;;;;;;;;;5032439;28;20431;-75
2023/03/13 03:56:25;;;;;;;21.13;3.65;;;;;;;;;;5045497;28;20052;-75
2023/03/13 03:58:51;;;;;;;21.95;3.90;;;;;;;;;;5037422;28;20025;-75
2023/03/13 04:01:20;;;;;;;23.55;3.72;;;;;;;;;;5049054;28;20028;-74
2023/03/13 04:03:47;;;;;;;23.35;4.72;;;;;;;;;;5040211;28;20029;-74
2023/03/13 04:06:14;;;;;;;28.15;4.10;;;;;;;;;;5043770;28;20233;-74
2023/03/13 04:08:40;;;;;;;25.98;4.32;;;;;;;;;;5049138;28;20041;-73
2023/03/13 04:11:07;;;;;;;20.27;4.07;;;;;;;;;;5041811;28;20058;-74
2023/03/13 04:13:33;;;;;;;25.67;4.65;;;;;;;;;;5048742;28;20052;-74
2023/03/13 04:16:08;;;;;;;18.80;4.15;;;;;;;;;;5036796;28;20036;-74
2023/03/13 04:18:35;;;;;;;26.02;4.72;;;;;;;;;;5048642;28;20036;-74
2023/03/13 04:21:02;;;;;;;22.17;4.97;;;;;;;;;;5037709;28;20037;-73
2023/03/13 04:23:31;;;;;;;20.92;5.15;;;;;;;;;;5049076;28;20021;-74
2023/03/13 04:26:00;;;;;;;21.77;4.72;;;;;;;;;;5049342;28;20549;-74
2023/03/13 04:28:26;;;;;;;20.23;4.65;;;;;;;;;;5048979;28;20040;-74
2023/03/13 04:30:56;;;;;;;18.65;5.05;;;;;;;;;;5041509;28;20242;-74
2023/03/13 04:33:22;;;;;;;18.10;4.60;;;;;;;;;;5030139;28;20486;-74
2023/03/13 04:35:50;;;;;;;22.92;5.43;;;;;;;;;;5044314;28;20076;-74
2023/03/13 04:38:16;;;;;;;24.02;5.20;;;;;;;;;;5048658;28;20075;-74
2023/03/13 04:40:43;;;;;;;23.90;5.38;;;;;;;;;;5047007;28;20469;-74
2023/03/13 04:43:10;;;;;;;20.55;5.45;;;;;;;;;;5041771;28;20021;-74
2023/03/13 04:45:37;;;;;;;23.33;5.40;;;;;;;;;;5028502;28;20022;-74
2023/03/13 04:48:04;;;;;;;22.20;4.80;;;;;;;;;;5035474;28;20027;-74
2023/03/13 04:50:30;;;;;;;26.88;5.63;;;;;;;;;;5030378;28;20029;-74
2023/03/13 04:52:57;;;;;;;21.95;5.00;;;;;;;;;;5045975;28;20033;-74
2023/03/13 04:55:23;;;;;;;25.65;5.10;;;;;;;;;;5045818;28;20588;-74
2023/03/13 04:57:50;;;;;;;18.98;4.78;;;;;;;;;;5036052;28;20033;-74
2023/03/13 05:00:19;;;;;;;19.50;5.50;;;;;;;;;;5036868;28;20039;-74
2023/03/13 05:02:48;;;;;;;21.35;5.57;;;;;;;;;;5034330;28;20017;-74
2023/03/13 05:05:16;;;;;;;20.83;5.15;;;;;;;;;;5036202;28;20029;-73
2023/03/13 05:07:44;;;;;;;25.05;5.60;;;;;;;;;;5028854;28;20021;-73
2023/03/13 05:10:15;;;;;;;19.20;5.18;;;;;;;;;;5039511;28;20025;-74
2023/03/13 05:12:49;;;;;;;22.17;6.35;;;;;;;;;;5052615;28;20044;-74
2023/03/13 05:15:19;;;;;;;28.40;5.68;;;;;;;;;;5048218;28;20497;-74
2023/03/13 05:17:53;;;;;;;23.33;6.38;;;;;;;;;;5043878;28;20053;-73
2023/03/13 05:20:24;;;;;;;23.02;5.50;;;;;;;;;;5034972;28;20041;-73
2023/03/13 05:22:56;;;;;;;23.88;5.63;;;;;;;;;;5048982;28;20061;-74
2023/03/13 05:25:26;;;;;;;19.52;5.90;;;;;;;;;;5030940;28;20040;-73
2023/03/13 05:27:53;;;;;;;16.98;5.60;;;;;;;;;;5041915;28;20033;-74
2023/03/13 05:30:19;;;;;;;26.90;6.18;;;;;;;;;;5043069;28;20051;-74
2023/03/13 05:32:46;;;;;;;17.48;5.95;;;;;;;;;;5057328;28;20563;-74
2023/03/13 05:35:19;;;;;;;14.82;6.05;;;;;;;;;;5043880;28;20639;-74
2023/03/13 05:37:46;;;;;;;18.45;6.38;;;;;;;;;;5044188;28;20432;-74
2023/03/13 05:40:14;;;;;;;19.02;6.13;;;;;;;;;;5042237;28;20060;-74
2023/03/13 05:42:46;;;;;;;16.73;6.20;;;;;;;;;;5045866;28;20115;-74
2023/03/13 05:45:20;;;;;;;17.33;5.63;;;;;;;;;;5036148;28;20021;-74
2023/03/13 05:47:47;;;;;;;17.88;6.18;;;;;;;;;;5039379;28;20117;-74
2023/03/13 05:50:14;;;;;;;19.58;6.32;;;;;;;;;;5038786;28;20033;-74
2023/03/13 05:52:43;;;;;;;17.85;5.75;;;;;;;;;;5054958;28;20041;-74
2023/03/13 05:55:15;;;;;;;14.27;5.65;;;;;;;;;;5054180;28;20028;-74
2023/03/13 05:57:46;;;;;;;14.30;5.65;;;;;;;;;;5045944;28;20396;-74
2023/03/13 06:00:18;;;;;;;17.48;6.40;;;;;;;;;;5039941;28;20509;-74
2023/03/13 06:02:46;;;;;;;14.02;5.80;;;;;;;;;;5044392;28;20444;-74
2023/03/13 06:05:16;;;;;;;15.20;6.15;;;;;;;;;;5045119;28;20032;-74
2023/03/13 06:07:47;;;;;;;17.73;6.35;;;;;;;;;;5045026;28;20039;-74
2023/03/13 06:10:16;;;;;;;20.35;6.20;;;;;;;;;;5044665;28;20036;-74
2023/03/13 06:12:44;;;;;;;19.42;6.70;;;;;;;;;;5047468;28;20044;-74
2023/03/13 06:15:10;;;;;;;19.60;6.95;;;;;;;;;;5037449;28;20374;-74
2023/03/13 06:17:38;;;;;;;19.10;6.50;;;;;;;;;;5042240;28;20755;-74
2023/03/13 06:20:06;;;;;;;17.55;7.22;;;;;;;;;;5040206;28;20147;-74
2023/03/13 06:22:32;;;;;;;21.52;7.13;;;;;;;;;;5048703;28;20119;-74
2023/03/13 06:25:02;;;;;;;20.25;7.03;;;;;;;;;;5039696;28;20087;-74
2023/03/13 06:27:29;;;;;;;17.70;7.53;;;;;;;;;;5048237;28;20044;-74
2023/03/13 06:29:57;;;;;;;17.73;7.15;;;;;;;;;;5042659;28;20481;-74
2023/03/13 06:32:23;;;;;;;18.92;6.70;;;;;;;;;;5043060;28;20024;-74
2023/03/13 06:34:51;;;;;;;12.10;6.47;;;;;;;;;;5049121;28;20061;-74
2023/03/13 06:37:18;;;;;;;20.30;7.38;;;;;;;;;;5055350;28;20037;-74
2023/03/13 06:39:44;;;;;;;18.42;7.03;;;;;;;;;;5037925;28;20030;-74
2023/03/13 06:42:10;;;;;;;15.68;6.75;;;;;;;;;;5042739;28;20036;-74
2023/03/13 06:44:36;;;;;;;19.45;7.75;;;;;;;;;;5044902;28;20139;-74
2023/03/13 06:47:04;;;;;;;20.50;7.10;;;;;;;;;;5046938;28;20032;-74
2023/03/13 06:49:30;;;;;;;15.18;7.18;;;;;;;;;;5051969;28;20472;-74
2023/03/13 06:51:57;;;;;;;14.02;6.72;;;;;;;;;;5046902;28;20095;-74
2023/03/13 06:54:27;;;;;;;14.02;6.82;;;;;;;;;;5062531;28;20039;-74
2023/03/13 06:56:53;;;;;;;15.15;6.80;;;;;;;;;;5043656;28;20044;-74
2023/03/13 06:59:21;;;;;;;15.00;7.88;;;;;;;;;;5043218;28;20029;-74
2023/03/13 07:01:47;;;;;;;13.52;7.68;;;;;;;;;;5052330;28;20566;-74
2023/03/13 07:04:15;;;;;;;13.55;7.38;;;;;;;;;;5030016;28;20047;-74
2023/03/13 07:06:42;;;;;;;16.75;7.97;;;;;;;;;;5051261;28;20046;-74
2023/03/13 07:09:10;;;;;;;13.90;7.47;;;;;;;;;;5051925;28;20482;-74
2023/03/13 07:11:36;;;;;;;12.88;7.30;;;;;;;;;;5049022;28;20047;-75
2023/03/13 07:17:14;;;;;;;17.90;7.57;;;;;;;;;;5055343;28;20037;-75
2023/03/13 07:19:43;;;;;;;13.57;8.00;;;;;;;;;;5057766;28;20040;-74
2023/03/13 07:22:09;;;;;;;15.00;7.55;;;;;;;;;;5043331;28;20037;-75
2023/03/13 07:24:38;;;;;;;12.27;7.25;;;;;;;;;;5064144;28;20074;-74
2023/03/13 07:27:04;;;;;;;15.80;7.78;;;;;;;;;;5062851;28;20012;-75
2023/03/13 07:29:33;;;;;;;15.65;7.35;;;;;;;;;;5055120;28;20044;-74
2023/03/13 07:32:02;;;;;;;12.95;7.38;;;0.00;0.00;;;;;;5060522;28;20437;-75
2023/03/13 07:34:28;;;;;;;13.07;7.22;;;0.00;0.00;;;;;;5058312;28;20028;-74
2023/03/13 07:36:57;;;;;;;13.18;7.32;;;;;;;;;;5042235;28;20083;-74
2023/03/13 07:39:26;;;;;;;13.80;7.65;;;;;;;;;;5047950;28;20036;-75
2023/03/13 07:41:53;;;;;;;15.30;7.47;;;;;;;;;;5038086;28;20516;-74
2023/03/13 07:44:20;;;;;;;13.40;8.20;;;;;;;;;;5053099;28;20561;-75
2023/03/13 07:46:47;;;;;;;11.88;7.65;;;;;;;;;;5045313;28;20049;-74
2023/03/13 07:49:17;;;;;;;13.55;7.10;;;;;;;;;;5048026;28;20026;-74
2023/03/13 07:51:46;;;;;;;15.52;7.40;;;;;;;;;;5056082;28;20021;-74
2023/03/13 07:54:12;;;;;;;11.13;7.15;;;;;;;;;;5041509;28;20032;-74
2023/03/13 07:56:39;;;;;;;12.50;6.75;;;;;;;;;;5048241;28;20481;-74
2023/03/13 07:59:05;;;;;;;12.68;6.57;;;;;;;;;;5058905;28;20265;-74
2023/03/13 08:01:34;;;;;;;14.95;7.70;;;;;;;;;;5055637;28;20044;-74
2023/03/13 08:04:04;;;;;;;12.07;7.00;;;;;;;;;;5051861;28;20234;-74
2023/03/13 08:06:35;;;;;;;9.30;6.70;;;;;;;;;;5055869;28;20485;-74
2023/03/13 08:09:02;;;;;;;10.80;6.80;;;;;;;;;;5048871;28;20473;-75
2023/03/13 08:11:28;;;;;;;10.98;7.00;;;;;;;;;;5049256;28;20036;-74
2023/03/13 08:13:56;;;;;;;10.63;6.93;;;;;;;;;;5042704;28;20033;-74
2023/03/13 08:16:28;;;;;;;11.07;6.60;;;;;;;;;;5051531;28;20021;-72
2023/03/13 08:18:55;;;;;;;10.48;5.95;;;;;;;;;;5046114;28;20063;-72
2023/03/13 08:21:25;;;;;;;10.65;6.60;;;;;;;;;;5055398;28;20028;-72
2023/03/13 08:23:56;;;;;;;12.50;7.00;;;;;;;;;;5056148;28;20484;-72
2023/03/13 08:26:24;;;;;;;8.50;5.75;;;;;;;;;;5054043;28;20099;-71
2023/03/13 08:28:56;;;;;;;10.77;5.75;;;;;;;;;;5041390;28;20064;-72
2023/03/13 08:31:27;;;;;;;8.23;4.35;;;;;;;;;;5059463;28;20366;-72
2023/03/13 08:33:53;;;;;;;12.15;5.68;;;;;;;;;;5050534;28;20033;-73
2023/03/13 08:36:24;;;;;;;7.18;5.10;;;;;;;;;;5050541;28;20028;-72
2023/03/13 08:38:54;;;;;;;8.32;5.30;;;;;;;;;;5054338;28;20063;-72
2023/03/13 08:41:25;;;;;;;10.07;5.05;;;;;;;;;;5056915;28;20037;-73
2023/03/13 08:43:58;;;;;;;10.57;5.57;;;;;;;;;;5046809;28;20047;-72
2023/03/13 08:46:26;;;;;;;10.77;5.57;;;;;;;;;;5047337;28;20108;-73
2023/03/13 08:48:54;;;;;;;9.48;5.97;;;;;;;;;;5059240;28;20053;-72
2023/03/13 08:51:24;;;;;;;10.85;6.25;;;0.00;0.00;;;;;;5040458;28;20037;-72
2023/03/13 08:53:54;;;;;;;9.27;6.03;;;;;;;;;;5043215;28;20022;-72
2023/03/13 08:56:22;;;;;;;9.93;6.30;;;;;;;;;;5039746;28;20021;-72
2023/03/13 08:58:50;;;;;;;12.07;6.90;;;;;;;;;;5065005;28;20452;-72
2023/03/13 09:01:22;;;;;;;15.95;9.93;;;;;;;;;;5049803;28;20477;-72
2023/03/13 09:03:49;;;;;;;14.30;9.80;;;;;;;;;;5047984;28;20027;-72
2023/03/13 09:06:20;;;;;;;9.77;7.07;;;;;;;;;;5052978;28;20388;-73
2023/03/13 09:08:47;;;;;;;8.20;4.75;;;;;;;;;;5063014;28;20035;-72
2023/03/13 09:11:15;;;;;;;7.45;4.55;;;;;;;;;;5046142;28;20489;-72
2023/03/13 09:13:48;;;;;;;7.57;4.38;;;;;;;;;;5046001;28;20526;-72
2023/03/13 09:16:16;;;;;;;7.75;4.10;;;;;;;;;;5053990;28;20034;-72
2023/03/13 09:18:47;;;;;;;6.50;4.00;;;;;;;;;;5062623;28;20063;-72
2023/03/13 09:21:19;;;;;;;6.45;3.72;;;;;;;;;;5051843;28;20105;-73
2023/03/13 09:23:47;;;;;;;5.88;3.67;;;;;;;;;;5053942;28;20074;-73
2023/03/13 09:26:19;;;;;;;6.60;3.78;;;;;;;;;;5049348;28;20051;-71
2023/03/13 09:28:49;;;;;;;5.97;3.10;;;;;;;;;;5048354;28;20045;-72
2023/03/13 09:31:18;;;;;;;6.78;3.30;;;;;;;;;;5060331;28;20029;-73
2023/03/13 09:33:45;;;;;;;5.35;2.92;;;;;;;;;;5041843;28;20030;-72
2023/03/13 09:36:12;;;;;;;4.57;2.72;;;;;;;;;;5040984;28;20029;-73
2023/03/13 09:38:43;;;;;;;5.93;2.53;;;;;;;;;;5049619;28;20447;-73
2023/03/13 09:41:28;;;;;;;5.22;2.65;;;;;;;;;;5055497;28;20028;-72
2023/03/13 09:44:17;;;;;;;6.60;3.17;;;;;;;;;;5042234;28;20021;-73
2023/03/13 09:46:56;;;;;;;5.50;3.42;;;;;;;;;;5056679;28;20024;-72
2023/03/13 09:49:33;;;;;;;7.65;3.20;;;;;;;;;;5051295;28;20025;-72
2023/03/13 09:52:09;;;;;;;4.07;3.33;;;;;;;;;;5047130;28;20105;-72
2023/03/13 09:54:49;;;;;;;4.15;3.00;;;;;;;;;;5054132;28;20053;-72
2023/03/13 09:57:21;;;;;;;3.40;2.50;;;;;;;;;;5036257;28;20037;-73
2023/03/13 09:59:54;;;;;;;6.10;2.92;;;;;;;;;;5052681;28;20017;-72
2023/03/13 10:02:32;;;;;;;5.25;2.92;;;;;;;;;;5053369;28;20421;-72
2023/03/13 10:05:22;;;;;;;4.47;2.65;;;;;;;;;;5055979;28;20024;-72
2023/03/13 10:07:55;;;;;;;5.45;2.83;;;;;;;;;;5055663;28;20422;-73
2023/03/13 10:10:34;;;;;;;3.55;2.05;;;;;;;;;;5043223;28;20079;-73
2023/03/13 10:13:10;;;;;;;5.03;2.50;;;;;;;;;;5044011;28;20044;-73
2023/03/13 10:15:43;;;;;;;5.75;3.17;;;;;;;;;;5050293;28;20596;-73
2023/03/13 10:18:18;;;;;;;6.45;3.05;;;;;;;;;;5047167;28;20505;-73
2023/03/13 10:20:50;;;;;;;5.20;3.05;;;;;;;;;;5043553;28;22353;-71
2023/03/13 10:23:42;;;;;;;6.28;3.10;;;0.00;0.00;;;;;;5042820;28;20096;-72
2023/03/13 10:26:14;;;;;;;3.70;2.53;;;;;;;;;;5032600;28;20108;-72
2023/03/13 10:28:47;;;;;;;4.30;2.50;;;0.00;0.00;;;;;;5040679;28;20492;-72
2023/03/13 10:31:24;;;;;;;4.47;2.65;;;;;;;;;;5048504;28;20116;-72
2023/03/13 10:34:09;;;;;;;4.10;2.78;;;0.00;0.00;;;;;;5045449;28;20033;-71
2023/03/13 10:36:47;;;;;;;5.15;2.88;;;;;;;;;;5041417;28;20036;-71
2023/03/13 10:39:21;;;;;;;6.18;2.97;;;;;;;;;;5031029;28;20045;-71
2023/03/13 10:41:58;;;;;;;5.18;3.08;;;;;;;;;;5043962;28;20029;-72
2023/03/13 10:44:32;;;;;;;4.65;2.70;;;;;;;;;;5049876;28;20029;-71
2023/03/13 10:47:01;;;;;;;5.40;2.70;;;;;;;;;;5048303;28;20482;-72
2023/03/13 10:49:27;;;;;;;3.95;2.40;;;;;;;;;;5043144;28;20036;-72
2023/03/13 10:52:01;;;;;;;4.75;2.80;;;;;;;;;;5040281;28;20125;-72
2023/03/13 10:54:28;;;;;;;4.43;2.70;;;;;;;;;;5051367;28;20048;-71
2023/03/13 10:57:12;;;;;;;7.05;2.97;;;;;;;;;;5049092;28;20029;-72
2023/03/13 10:59:40;;;;;;;6.95;2.88;;;;;;;;;;5039250;28;20037;-72
2023/03/13 11:02:28;;;;;;;4.78;2.90;;;;;;;;;;5038894;28;20029;-72
2023/03/13 11:05:00;;;;;;;5.35;2.92;;;;;;;;;;5045251;28;20028;-72
2023/03/13 11:07:32;;;;;;;5.60;2.80;;;;;;;;;;5046620;28;20056;-72
2023/03/13 11:10:11;;;;;;;7.43;3.17;;;;;;;;;;5041152;28;20167;-72
2023/03/13 11:12:47;;;;;;;6.38;3.53;;;;;;;;;;5041247;28;20033;-71
2023/03/13 11:15:21;;;;;;;6.45;4.03;;;;;;;;;;5043906;28;20030;-72
2023/03/13 11:17:59;;;;;;;5.40;3.40;;;;;;;;;;5040127;28;20493;-72
2023/03/13 11:20:28;;;;;;;4.13;3.03;;;;;;;;;;5042641;28;20496;-72
2023/03/13 11:23:15;;;;;;;3.88;2.92;;;;;;;;;;5047416;28;20064;-72
2023/03/13 11:25:51;;;;;;;7.13;3.10;;;;;;;;;;5044916;28;20052;-72
2023/03/13 11:28:18;;;;;;;4.63;3.20;;;;;;;;;;5044013;28;20156;-72
2023/03/13 11:30:49;;;;;;;4.00;2.83;;;;;;;;;;5037426;28;20049;-73
2023/03/13 11:33:21;;;;;;;5.18;2.80;;;;;;;;;;5045879;28;20049;-72
2023/03/13 11:35:55;;;;;;;7.65;3.05;;;;;;;;;;5044590;28;20626;-72
2023/03/13 11:38:29;;;;;;;6.68;3.10;;;;;;;;;;5042860;28;20036;-72
2023/03/13 11:41:14;;;;;;;5.53;2.42;;;;;;;;;;5046531;28;20115;-72
2023/03/13 11:43:56;;;;;;;6.95;3.28;;;;;;;;;;5039001;28;20040;-71
2023/03/13 11:46:28;;;;;;;8.32;3.10;;;;;;;;;;5057203;28;20040;-71
2023/03/13 11:49:13;;;;;;;7.03;4.22;;;;;;;;;;5036739;28;20025;-72
2023/03/13 11:51:59;;;;;;;8.80;3.95;;;;;;;;;;5044520;28;20071;-72
2023/03/13 11:54:44;;;;;;;4.90;2.63;;;;;;;;;;5036882;28;20078;-71
2023/03/13 11:57:22;;;;;;;4.95;2.90;;;;;;;;;;5034372;28;20060;-72
2023/03/13 11:59:56;;;;;;;4.63;2.90;;;;;;;;;;5033281;28;20028;-72
2023/03/13 12:02:37;;;;;;;5.63;2.58;;;;;;;;;;5040386;28;20017;-72
2023/03/13 12:05:09;;;;;;;4.40;2.42;;;;;;;;;;5038437;28;20024;-71
2023/03/13 12:07:40;;;;;;;4.70;2.10;;;;;;;;;;5060096;28;20029;-72
2023/03/13 12:10:15;;;;;;;3.80;2.20;;;;;;;;;;5034817;28;20033;-72
2023/03/13 12:12:51;;;;;;;4.13;1.98;;;;;;;;;;5034555;28;20397;-72
2023/03/13 12:15:25;;;;;;;4.75;1.63;;;;;;;;;;5045976;28;20032;-72
2023/03/13 12:17:55;;;;;;;3.40;1.80;;;;;;;;;;5043962;28;20432;-72
2023/03/13 12:20:33;;;;;;;3.30;1.95;;;;;;;;;;5038281;28;20029;-72
2023/03/13 12:23:10;;;;;;;2.28;1.73;;;;;;;;;;5041319;28;20578;-72
2023/03/13 12:25:43;;;;;;;3.25;1.73;;;;;;;;;;5045806;28;20033;-72
2023/03/13 12:28:23;;;;;;;5.13;2.00;;;;;;;;;;5037990;28;20373;-72
2023/03/13 12:31:08;;;;;;;3.88;1.63;;;;;;;;;;5041330;28;20057;-72
2023/03/13 12:33:46;;;;;;;5.32;1.80;;;;;;;;;;5039189;28;20043;-72
2023/03/13 12:36:32;;;;;;;6.65;1.98;;;;;;;;;;5045826;28;20040;-72
2023/03/13 12:39:08;;;;;;;2.92;1.50;;;;;;;;;;5046225;28;20029;-72
2023/03/13 12:41:42;;;;;;;4.40;1.80;;;;;;;;;;5032479;28;20041;-72
2023/03/13 12:44:08;;;;;;;;;;;;;;;;;;5038616;28;20493;-72
2023/03/13 12:46:38;;;;;;;4.47;1.77;;;;;;;;;;5045165;28;19912;-72
2023/03/13 12:49:20;;;;;;;4.35;2.15;;;;;;;;;;5036372;28;20032;-72
2023/03/13 12:51:49;;;;;;;2.25;1.50;;;;;;;;;;5042424;28;20036;-72
2023/03/13 12:54:22;;;;;;;4.43;1.77;;;;;;;;;;5035188;28;20033;-72
2023/03/13 12:56:59;;;;;;;1.98;1.48;;;;;;;;;;5036367;28;20101;-72
2023/03/13 12:59:34;;;;;;;3.42;1.80;;;;;;;;;;5039147;28;20032;-72
2023/03/13 13:02:02;;;;;;;2.80;1.60;;;;;;;;;;5040227;28;22703;-71
2023/03/13 13:04:34;;;;;;;3.97;1.75;;;;;;;;;;5034870;28;20408;-71
2023/03/13 13:07:25;;;;;;;3.56;1.84;;;;;;;;;;4981791;28;10000562;-73
2023/03/13 13:10:07;;;;;;;3.60;1.90;;;;;;;;;;5036093;28;20324;-72
2023/03/13 13:12:34;;;;;;;4.55;2.08;;;;;;;;;;5041913;28;20045;-73
2023/03/13 13:15:26;;;;;;;3.28;1.90;;;;;;;;;;5042099;28;20033;-71
2023/03/13 13:18:13;;;;;;;2.88;1.95;;;;;;;;;;5031459;28;20045;-72
2023/03/13 13:20:47;;;;;;;4.68;1.80;;;;;;;;;;5033627;28;20056;-72
2023/03/13 13:23:27;;;;;;;3.17;1.90;;;;;;;;;;5035950;28;20053;-72
2023/03/13 13:25:55;;;;;;;3.28;1.80;;;;;;;;;;5035068;28;20082;-74
2023/03/13 13:28:31;;;;;;;4.20;2.20;;;;;;;;;;5050070;28;21240;-72
2023/03/13 13:30:58;;;;;;;5.20;2.38;;;;;;;;;;5046559;28;20044;-72
2023/03/13 13:33:29;;;;;;;3.85;3.03;;;;;;;;;;5049018;28;20659;-72
2023/03/13 13:36:10;;;;;;;4.47;2.85;;;;;;;;;;5034889;28;20031;-73
2023/03/13 13:38:41;;;;;;;3.90;2.90;;;;;;;;;;5043619;28;20091;-74
2023/03/13 13:41:22;;;;;;;3.58;2.67;;;;;;;;;;5042304;28;20112;-74
2023/03/13 13:43:49;;;;;;;3.40;2.63;;;;;;;;;;5038729;28;20028;-73
2023/03/13 13:46:18;;;;;;;3.05;2.40;;;;;;;;;;5035337;28;20032;-73
2023/03/13 13:48:45;;;;;;;3.90;2.40;;;;;;;;;;5034753;28;20441;-73
2023/03/13 13:51:18;;;;;;;4.65;2.67;;;;;;;;;;5031391;28;20102;-73
2023/03/13 13:53:58;;;;;;;4.47;2.55;;;;;;;;;;5038085;28;20040;-73
2023/03/13 13:56:27;;;;;;;5.10;3.80;;;;;;;;;;5036891;28;20033;-71
2023/03/13 13:59:03;;;;;;;3.72;3.03;;;;;;;;;;5036958;28;20029;-72
2023/03/13 14:01:30;;;;;;;4.05;2.58;;;;;;;;;;5035701;28;20037;-72
2023/03/13 14:04:10;;;;;;;3.30;2.80;;;;;;;;;;5039989;28;20036;-72
2023/03/13 14:06:37;;;;;;;5.03;2.70;;;;;;;;;;5037684;28;20034;-72
2023/03/13 14:09:33;;;;;;;4.32;2.53;;;;;;;;;;5035454;28;20091;-72
2023/03/13 14:11:59;;;;;;;3.67;2.78;;;;;;;;;;5043923;28;20045;-72
2023/03/13 14:14:26;;;;;;;3.28;2.72;;;;;;;;;;5045731;28;21246;-72
2023/03/13 14:16:55;;;;;;;2.65;2.45;;;;;;;;;;5043169;28;20033;-72
2023/03/13 14:19:21;;;;;;;4.85;3.28;;;;;;;;;;5041919;28;20064;-72
2023/03/13 14:21:48;;;;;;;4.40;2.78;;;;;;;;;;5043107;28;20047;-71
2023/03/13 14:24:14;;;;;;;5.50;3.80;;;;;;;;;;5046025;28;20397;-72
2023/03/13 14:26:44;;;;;;;4.78;3.65;;;;;;;;;;5042517;28;20024;-71
2023/03/13 14:29:19;;;;;;;6.30;3.72;;;;;;;;;;5039611;28;20032;-72
2023/03/13 14:31:56;;;;;;;4.82;4.32;;;;;;;;;;5036530;28;20040;-71